Impacts TAF Board
For situational awareness. Not to be used for flight planning purposes.
IDs:

KPDX - Portland Intl Arpt, OR, US

Issued at 1722 UTC 23 Sep 2018
Updated at 1947 UTC 23 Sep 2018
Potential Impact None Slight Moderate High
Time<<24/08Z 24/09Z 24/10Z 24/11Z 24/12Z 24/13Z 24/14Z 24/15Z 24/16Z 24/17Z 24/18Z 24/19Z 24/20Z>>
Type PRVL PRVL PRVL PRVL PRVL PRVL PRVL PRVL PRVL PRVL
VIS >6 >6 >6 >6 >6 >6 >6 >6 >6 >6
CIG -- -- -- -- -- -- -- -- -- --
Cover SKC SKC SCT SCT SCT SCT SCT SCT SCT SCT
FltCat VFR VFR VFR VFR VFR VFR VFR VFR VFR VFR
WX -- -- -- -- -- -- -- -- -- --
WDir 320 320 VRB VRB VRB VRB VRB VRB VRB VRB
WSpd 5 5 2 2 2 2 2 2 2 2
WGst -- -- -- -- -- -- -- -- -- --
Raw TAF
KPDX 231722Z 2318/2418 VRB03KT P6SM SCT015 BKN025
  FM231900 30007KT P6SM SCT045 SCT070
  FM240300 32005KT P6SM SKC
  FM241000 VRB02KT P6SM SCT020


METAR Board
Radar Display
Forecast Discussion
For situational awareness. Not to be used for flight planning purposes.